Time;durP1;ratioP1;P1;durP2;ratioP2;P2;SDS_P1;SDS_P2;PMS_P1;PMS_P2;Temp;Humidity;BMP_temperature;BMP_pressure;BME280_temperature;BME280_humidity;BME280_pressure;Samples;Min_cycle;Max_cycle;Signal;HPM_P1;HPM_P2
2023/03/07 00:00:35;;;;;;;;;;;;;;;-142.41;100.00;64449.00;5134361;28;20330;-65
2023/03/07 00:03:00;;;;;;;;;;;;;;;-142.41;100.00;64449.00;5134828;28;19911;-64
2023/03/07 00:05:26;;;;;;;;;;;;;;;-142.41;100.00;64449.00;5134679;28;20366;-64
2023/03/07 00:07:51;;;;;;;;;;;;;;;-142.41;100.00;64449.00;5134344;28;19923;-64
2023/03/07 00:10:16;;;;;;;;;;;;;;;-142.41;100.00;64449.00;5134290;28;19912;-64
2023/03/07 00:12:42;;;;;;;;;;;;;;;-142.41;100.00;64449.00;5134523;28;19922;-64
2023/03/07 00:15:08;;;;;;;;;;;;;;;-142.41;100.00;64449.00;5116097;28;19915;-64
2023/03/07 00:17:38;;;;;;;;;;;;;;;-142.41;100.00;64449.00;5134190;28;19919;-65
2023/03/07 00:20:06;;;;;;;;;;;;;;;-142.41;100.00;64449.00;5134402;28;19911;-65
2023/03/07 00:22:31;;;;;;;;;;;;;;;-142.41;100.00;64449.00;5134406;28;20354;-65
2023/03/07 00:24:56;;;;;;;;;;;;;;;-142.41;100.00;64449.00;5134254;28;20002;-64
2023/03/07 00:27:21;;;;;;;;;;;;;;;-142.41;100.00;64449.00;5134333;28;19917;-64
2023/03/07 00:29:49;;;;;;;;;;;;;;;-142.41;100.00;64449.00;5133913;28;20375;-66
2023/03/07 00:32:14;;;;;;;;;;;;;;;-142.41;100.00;64449.00;5057307;27;2162594;-64
2023/03/07 00:34:40;;;;;;;;;;;;;;;-142.41;100.00;64449.00;5135341;27;19915;-65
2023/03/07 00:37:05;;;;;;;;;;;;;;;-142.41;100.00;64449.00;5134764;27;19911;-65
2023/03/07 00:39:30;;;;;;;;;;;;;;;-142.41;100.00;64449.00;5134813;27;19919;-65
2023/03/07 00:41:56;;;;;;;;;;;;;;;-142.41;100.00;64449.00;5134790;27;19971;-65
2023/03/07 00:44:21;;;;;;;;;;;;;;;-142.41;100.00;64449.00;5134566;27;20463;-63
2023/03/07 00:46:46;;;;;;;;;;;;;;;-142.41;100.00;64449.00;5134460;27;19911;-66
2023/03/07 00:49:12;;;;;;;;;;;;;;;-142.41;100.00;64449.00;5134746;27;20006;-63
2023/03/07 00:51:37;;;;;;;;;;;;;;;-142.41;100.00;64449.00;5134676;27;20443;-63
2023/03/07 00:54:02;;;;;;;;;;;;;;;-142.41;100.00;64449.00;5134628;27;20002;-65
2023/03/07 00:56:28;;;;;;;;;;;;;;;-142.41;100.00;64449.00;5134620;27;19962;-65
2023/03/07 00:58:53;;;;;;;;;;;;;;;-142.41;100.00;64449.00;5134921;27;19940;-64
2023/03/07 01:01:21;;;;;;;;;;;;;;;-142.41;100.00;64449.00;5134647;27;19946;-66
2023/03/07 01:03:52;;;;;;;;;;;;;;;-142.41;100.00;64449.00;5134111;27;19980;-65
2023/03/07 01:06:18;;;;;;;;;;;;;;;-142.41;100.00;64449.00;5134425;27;19918;-66
2023/03/07 01:08:43;;;;;;;;;;;;;;;-142.41;100.00;64449.00;5134191;27;19911;-64
2023/03/07 01:11:09;;;;;;;;;;;;;;;-142.41;100.00;64449.00;5134265;27;20006;-64
2023/03/07 01:13:36;;;;;;;;;;;;;;;-142.41;100.00;64449.00;5134008;27;20358;-64
2023/03/07 01:16:27;;;;;;;;;;;;;;;-142.41;100.00;64449.00;5134262;27;19919;-64
2023/03/07 01:18:55;;;;;;;;;;;;;;;-142.41;100.00;64449.00;5130035;27;19974;-65
2023/03/07 01:21:20;;;;;;;;;;;;;;;-142.41;100.00;64449.00;5134159;27;19947;-66
2023/03/07 01:23:46;;;;;;;;;;;;;;;-142.41;100.00;64449.00;5134255;27;19957;-65
2023/03/07 01:26:15;;;;;;;;;;;;;;;-142.41;100.00;64449.00;5115407;27;19911;-66
2023/03/07 01:28:40;;;;;;;;;;;;;;;-142.41;100.00;64449.00;5133972;27;19911;-66
2023/03/07 01:31:06;;;;;;;;;;;;;;;-142.41;100.00;64449.00;5133767;27;19923;-65
2023/03/07 01:33:32;;;;;;;;;;;;;;;-142.41;100.00;64449.00;5133804;27;20385;-65
2023/03/07 01:35:57;;;;;;;;;;;;;;;-142.41;100.00;64449.00;5133808;27;19911;-68
2023/03/07 01:38:22;;;;;;;;;;;;;;;-142.41;100.00;64449.00;5133745;27;19912;-65
2023/03/07 01:40:48;;;;;;;;;;;;;;;-142.41;100.00;64449.00;5133628;27;19911;-64
2023/03/07 01:43:25;;;;;;;;;;;;;;;-142.41;100.00;64449.00;5133599;27;20362;-66
2023/03/07 01:45:50;;;;;;;;;;;;;;;-142.41;100.00;64449.00;5133625;27;19915;-67
2023/03/07 01:48:16;;;;;;;;;;;;;;;-142.41;100.00;64449.00;5133692;27;19911;-66
2023/03/07 01:50:41;;;;;;;;;;;;;;;-142.41;100.00;64449.00;5133726;27;19962;-65
2023/03/07 01:53:07;;;;;;;;;;;;;;;-142.41;100.00;64449.00;5114959;27;19912;-64
2023/03/07 01:55:34;;;;;;;;;;;;;;;-142.41;100.00;64449.00;5133153;27;20351;-66
2023/03/07 01:58:02;;;;;;;;;;;;;;;-142.41;100.00;64449.00;5133545;27;20014;-65
2023/03/07 02:00:28;;;;;;;;;;;;;;;-142.41;100.00;64449.00;5114872;27;19965;-65
2023/03/07 02:03:14;;;;;;;;;;;;;;;-142.41;100.00;64449.00;5133429;27;19954;-65
2023/03/07 02:05:41;;;;;;;;;;;;;;;-142.41;100.00;64449.00;5132571;27;20320;-66
2023/03/07 02:08:08;;;;;;;;;;;;;;;-142.41;100.00;64449.00;5133500;27;20361;-65
2023/03/07 02:10:35;;;;;;;;;;;;;;;-142.41;100.00;64449.00;5133303;27;19911;-66
2023/03/07 02:13:00;;;;;;;;;;;;;;;-142.41;100.00;64449.00;5133257;28;20389;-64
2023/03/07 02:15:25;;;;;;;;;;;;;;;-142.41;100.00;64449.00;5132254;27;19969;-65
2023/03/07 02:17:51;;;;;;;;;;;;;;;-142.41;100.00;64449.00;5133127;28;19956;-66
2023/03/07 02:20:27;;;;;;;;;;;;;;;-142.41;100.00;64449.00;5133144;28;20025;-64
2023/03/07 02:22:53;;;;;;;;;;;;;;;-142.41;100.00;64449.00;5133147;28;19911;-64
2023/03/07 02:25:24;;;;;;;;;;;;;;;-142.41;100.00;64449.00;5133164;28;19930;-65
2023/03/07 02:27:51;;;;;;;;;;;;;;;-142.41;100.00;64449.00;5133114;28;20310;-65
2023/03/07 02:30:18;;;;;;;;;;;;;;;-142.41;100.00;64449.00;5133054;28;19934;-65
2023/03/07 02:32:46;;;;;;;;;;;;;;;-142.41;100.00;64449.00;5133070;28;20335;-65
2023/03/07 02:35:13;;;;;;;;;;;;;;;-142.41;100.00;64449.00;5133129;28;19922;-67
2023/03/07 02:37:39;;;;;;;;;;;;;;;-142.41;100.00;64449.00;5133162;28;19977;-65
2023/03/07 02:40:08;;;;;;;;;;;;;;;-142.41;100.00;64449.00;5133055;28;19911;-63
2023/03/07 02:42:36;;;;;;;;;;;;;;;-142.41;100.00;64449.00;5133206;28;19915;-64
2023/03/07 02:45:02;;;;;;;;;;;;;;;-142.41;100.00;64449.00;5133610;28;19912;-65
2023/03/07 02:47:28;;;;;;;;;;;;;;;-142.41;100.00;64449.00;5132955;28;20266;-63
2023/03/07 02:49:54;;;;;;;;;;;;;;;-142.41;100.00;64449.00;5133532;28;19955;-65
2023/03/07 02:52:20;;;;;;;;;;;;;;;-142.41;100.00;64449.00;5133321;28;20025;-64
2023/03/07 02:54:46;;;;;;;;;;;;;;;-142.41;100.00;64449.00;5132958;28;19915;-64
2023/03/07 02:57:11;;;;;;;;;;;;;;;-142.41;100.00;64449.00;5132936;28;19912;-65
2023/03/07 02:59:36;;;;;;;;;;;;;;;-142.41;100.00;64449.00;5132793;28;19941;-65
2023/03/07 03:02:02;;;;;;;;;;;;;;;-142.41;100.00;64449.00;5132645;28;19911;-66
2023/03/07 03:04:28;;;;;;;;;;;;;;;-142.41;100.00;64449.00;5132996;28;20001;-65
2023/03/07 03:06:53;;;;;;;;;;;;;;;-142.41;100.00;64449.00;5114653;28;19919;-63
2023/03/07 03:09:22;;;;;;;;;;;;;;;-142.41;100.00;64449.00;5133209;28;19975;-66
2023/03/07 03:11:47;;;;;;;;;;;;;;;-142.41;100.00;64449.00;5133125;28;19959;-66
2023/03/07 03:14:12;;;;;;;;;;;;;;;-142.41;100.00;64449.00;5132916;28;19912;-65
2023/03/07 03:16:39;;;;;;;;;;;;;;;-142.41;100.00;64449.00;5114382;28;19911;-67
2023/03/07 03:19:04;;;;;;;;;;;;;;;-142.41;100.00;64449.00;5133133;28;19933;-65
2023/03/07 03:21:30;;;;;;;;;;;;;;;-142.41;100.00;64449.00;5133095;28;19911;-65
2023/03/07 03:23:55;;;;;;;;;;;;;;;-142.41;100.00;64449.00;5114407;28;20006;-64
2023/03/07 03:26:20;;;;;;;;;;;;;;;-142.41;100.00;64449.00;5132914;27;19912;-65
2023/03/07 03:28:46;;;;;;;;;;;;;;;-142.41;100.00;64449.00;5136304;27;19912;-67
2023/03/07 03:31:14;;;;;;;;;;;;;;;-142.41;100.00;64449.00;5117937;27;19968;-63
2023/03/07 03:33:40;;;;;;;;;;;;;;;-142.41;100.00;64449.00;5137006;27;19916;-65
2023/03/07 03:36:11;;;;;;;;;;;;;;;-142.41;100.00;64449.00;5137345;27;19915;-64
2023/03/07 03:38:36;;;;;;;;;;;;;;;-142.41;100.00;64449.00;5136948;27;19918;-65
2023/03/07 03:41:03;;;;;;;;;;;;;;;-142.41;100.00;64449.00;5136255;27;19911;-65
2023/03/07 03:43:28;;;;;;;;;;;;;;;-142.41;100.00;64449.00;5136968;27;19956;-63
2023/03/07 03:45:54;;;;;;;;;;;;;;;-142.41;100.00;64449.00;5136990;27;19919;-71
2023/03/07 03:48:20;;;;;;;;;;;;;;;-142.41;100.00;64449.00;5136726;27;19911;-68
2023/03/07 03:50:45;;;;;;;;;;;;;;;-142.41;100.00;64449.00;5136681;27;19915;-69
2023/03/07 03:53:10;;;;;;;;;;;;;;;-142.41;100.00;64449.00;5118120;27;20000;-64
2023/03/07 03:55:36;;;;;;;;;;;;;;;-142.41;100.00;64449.00;5135925;27;20311;-65
2023/03/07 03:58:01;;;;;;;;;;;;;;;-142.41;100.00;64449.00;5135820;27;19915;-66
2023/03/07 04:00:27;;;;;;;;;;;;;;;-142.41;100.00;64449.00;5135825;27;19911;-64
2023/03/07 04:02:52;;;;;;;;;;;;;;;-142.41;100.00;64449.00;5136335;27;19911;-69
2023/03/07 04:05:17;;;;;;;;;;;;;;;-142.41;100.00;64449.00;5136761;27;19919;-69
2023/03/07 04:07:43;;;;;;;;;;;;;;;-142.41;100.00;64449.00;5134899;27;19911;-68
2023/03/07 04:10:09;;;;;;;;;;;;;;;-142.41;100.00;64449.00;5135721;27;19911;-65
2023/03/07 04:12:34;;;;;;;;;;;;;;;-142.41;100.00;64449.00;5117198;27;20377;-68
2023/03/07 04:14:59;;;;;;;;;;;;;;;-142.41;100.00;64449.00;5135623;27;19971;-69
2023/03/07 04:17:25;;;;;;;;;;;;;;;-142.41;100.00;64449.00;5136400;27;19911;-71
2023/03/07 04:19:50;;;;;;;;;;;;;;;-142.41;100.00;64449.00;5117509;27;19912;-68
2023/03/07 04:22:15;;;;;;;;;;;;;;;-142.41;100.00;64449.00;5135604;27;19911;-63
2023/03/07 04:24:41;;;;;;;;;;;;;;;-142.41;100.00;64449.00;5135499;27;19918;-66
2023/03/07 04:27:06;;;;;;;;;;;;;;;-142.41;100.00;64449.00;5135351;27;19911;-63
2023/03/07 04:29:32;;;;;;;;;;;;;;;-142.41;100.00;64449.00;5136933;27;20398;-67
2023/03/07 04:31:57;;;;;;;;;;;;;;;-142.41;100.00;64449.00;5137245;27;19915;-68
2023/03/07 04:34:28;;;;;;;;;;;;;;;-142.41;100.00;64449.00;5137121;27;19916;-66
2023/03/07 04:36:53;;;;;;;;;;;;;;;-142.41;100.00;64449.00;5118492;27;19955;-64
2023/03/07 04:39:18;;;;;;;;;;;;;;;-142.41;100.00;64449.00;5135639;27;19938;-64
2023/03/07 04:41:44;;;;;;;;;;;;;;;-142.41;100.00;64449.00;5135881;27;20382;-66
2023/03/07 04:44:09;;;;;;;;;;;;;;;-142.41;100.00;64449.00;5134839;27;19916;-65
2023/03/07 04:46:34;;;;;;;;;;;;;;;-142.41;100.00;64449.00;5134899;27;19924;-67
2023/03/07 04:49:00;;;;;;;;;;;;;;;-142.41;100.00;64449.00;5134810;27;20258;-67
2023/03/07 04:51:25;;;;;;;;;;;;;;;-142.41;100.00;64449.00;5134644;27;19911;-62
2023/03/07 04:53:50;;;;;;;;;;;;;;;-142.41;100.00;64449.00;5135082;27;20067;-66
2023/03/07 04:56:16;;;;;;;;;;;;;;;-142.41;100.00;64449.00;5134174;27;20012;-64
2023/03/07 04:58:42;;;;;;;;;;;;;;;-142.41;100.00;64449.00;5134405;27;19918;-66
2023/03/07 05:01:07;;;;;;;;;;;;;;;-142.41;100.00;64449.00;5134469;27;20380;-65
2023/03/07 05:03:33;;;;;;;;;;;;;;;-142.41;100.00;64449.00;5134226;27;19912;-65
2023/03/07 05:06:03;;;;;;;;;;;;;;;-142.41;100.00;64449.00;5134177;27;19995;-66
2023/03/07 05:08:28;;;;;;;;;;;;;;;-142.41;100.00;64449.00;5133956;27;19916;-64
2023/03/07 05:10:53;;;;;;;;;;;;;;;-142.41;100.00;64449.00;5134363;27;20011;-66
2023/03/07 05:13:19;;;;;;;;;;;;;;;-142.41;100.00;64449.00;5134164;27;19966;-64
2023/03/07 05:15:48;;;;;;;;;;;;;;;-142.41;100.00;64449.00;5134256;27;20005;-64
2023/03/07 05:18:13;;;;;;;;;;;;;;;-142.41;100.00;64449.00;5134008;27;19956;-66
2023/03/07 05:20:41;;;;;;;;;;;;;;;-142.41;100.00;64449.00;5134272;27;19919;-64
2023/03/07 05:23:07;;;;;;;;;;;;;;;-142.41;100.00;64449.00;5133996;27;19919;-64
2023/03/07 05:25:32;;;;;;;;;;;;;;;-142.41;100.00;64449.00;5133809;27;19912;-66
2023/03/07 05:27:58;;;;;;;;;;;;;;;-142.41;100.00;64449.00;5133938;27;19915;-66
2023/03/07 05:30:23;;;;;;;;;;;;;;;-142.41;100.00;64449.00;5134263;27;20417;-65
2023/03/07 05:32:50;;;;;;;;;;;;;;;-142.41;100.00;64449.00;5116013;27;20185;-65
2023/03/07 05:35:15;;;;;;;;;;;;;;;-142.41;100.00;64449.00;5128593;27;19932;-67
2023/03/07 05:37:40;;;;;;;;;;;;;;;-142.41;100.00;64449.00;5121575;27;19937;-65
2023/03/07 05:40:09;;;;;;;;;;;;;;;-142.41;100.00;64449.00;5123992;27;20312;-66
2023/03/07 05:42:34;;;;;;;;;;;;;;;-142.41;100.00;64449.00;5104338;27;19923;-68
2023/03/07 05:45:00;;;;;;;;;;;;;;;-142.41;100.00;64449.00;5123908;27;19911;-66
2023/03/07 05:47:25;;;;;;;;;;;;;;;-142.41;100.00;64449.00;5121263;27;19930;-66
2023/03/07 05:49:50;;;;;;;;;;;;;;;-142.41;100.00;64449.00;5105328;28;19998;-65
2023/03/07 05:52:16;;;;;;;;;;;;;;;-142.41;100.00;64449.00;5123820;27;19912;-65
2023/03/07 05:54:41;;;;;;;;;;;;;;;-142.41;100.00;64449.00;5124090;27;19912;-65
2023/03/07 05:57:06;;;;;;;;;;;;;;;-142.41;100.00;64449.00;5120986;27;20323;-65
2023/03/07 05:59:32;;;;;;;;;;;;;;;-142.41;100.00;64449.00;5123877;27;20010;-66
2023/03/07 06:01:57;;;;;;;;;;;;;;;-142.41;100.00;64449.00;5123683;27;19918;-64
2023/03/07 06:04:22;;;;;;;;;;;;;;;-142.41;100.00;64449.00;5118490;28;19912;-65
2023/03/07 06:06:48;;;;;;;;;;;;;;;-142.41;100.00;64449.00;5123181;27;19911;-65
2023/03/07 06:09:13;;;;;;;;;;;;;;;-142.41;100.00;64449.00;5124395;27;20466;-65
2023/03/07 06:11:38;;;;;;;;;;;;;;;-142.41;100.00;64449.00;5105248;28;19918;-65
2023/03/07 06:14:04;;;;;;;;;;;;;;;-142.41;100.00;64449.00;5122644;28;19947;-67
2023/03/07 06:16:29;;;;;;;;;;;;;;;-142.41;100.00;64449.00;5121671;28;19922;-66
2023/03/07 06:18:54;;;;;;;;;;;;;;;-142.41;100.00;64449.00;5124005;28;20010;-67
2023/03/07 06:21:20;;;;;;;;;;;;;;;-142.41;100.00;64449.00;5133416;28;19936;-65
2023/03/07 06:23:45;;;;;;;;;;;;;;;-142.41;100.00;64449.00;5133210;28;19915;-66
2023/03/07 06:26:11;;;;;;;;;;;;;;;-142.41;100.00;64449.00;5133178;28;20027;-65
2023/03/07 06:28:37;;;;;;;;;;;;;;;-142.41;100.00;64449.00;5133286;28;19923;-67
2023/03/07 06:31:09;;;;;;;;;;;;;;;-142.41;100.00;64449.00;5133028;28;19963;-66
2023/03/07 06:33:35;;;;;;;;;;;;;;;-142.41;100.00;64449.00;5133292;28;19962;-65
2023/03/07 06:36:04;;;;;;;;;;;;;;;-142.41;100.00;64449.00;5133126;28;20312;-66
2023/03/07 06:38:29;;;;;;;;;;;;;;;-142.41;100.00;64449.00;5133143;28;19946;-66
2023/03/07 06:40:55;;;;;;;;;;;;;;;-142.41;100.00;64449.00;5132983;28;19959;-66
2023/03/07 06:43:20;;;;;;;;;;;;;;;-142.41;100.00;64449.00;5133335;28;19912;-66
2023/03/07 06:45:46;;;;;;;;;;;;;;;-142.41;100.00;64449.00;5133208;28;19912;-66
2023/03/07 06:48:11;;;;;;;;;;;;;;;-142.41;100.00;64449.00;5133145;28;19961;-65
2023/03/07 06:50:36;;;;;;;;;;;;;;;-142.41;100.00;64449.00;5132891;28;19911;-66
2023/03/07 06:53:02;;;;;;;;;;;;;;;-142.41;100.00;64449.00;5132889;28;20266;-66
2023/03/07 06:55:27;;;;;;;;;;;;;;;-142.41;100.00;64449.00;5132642;28;19919;-67
2023/03/07 06:57:52;;;;;;;;;;;;;;;-142.41;100.00;64449.00;5133207;28;19912;-66
2023/03/07 07:00:18;;;;;;;;;;;;;;;-142.41;100.00;64449.00;5133213;28;20315;-66
2023/03/07 07:02:43;;;;;;;;;;;;;;;-142.41;100.00;64449.00;5135068;27;20449;-65
2023/03/07 07:05:09;;;;;;;;;;;;;;;-142.41;100.00;64449.00;5137208;27;19916;-67
2023/03/07 07:07:34;;;;;;;;;;;;;;;-142.41;100.00;64449.00;5137076;27;19911;-66
2023/03/07 07:10:00;;;;;;;;;;;;;;;-142.41;100.00;64449.00;5136654;27;19938;-66
2023/03/07 07:12:25;;;;;;;;;;;;;;;-142.41;100.00;64449.00;5136886;27;20009;-66
2023/03/07 07:14:51;;;;;;;;;;;;;;;-142.41;100.00;64449.00;5136834;27;20002;-66
2023/03/07 07:17:16;;;;;;;;;;;;;;;-142.41;100.00;64449.00;5136638;27;19912;-65
2023/03/07 07:19:41;;;;;;;;;;;;;;;-142.41;100.00;64449.00;5136683;27;19911;-66
2023/03/07 07:22:10;;;;;;;;;;;;;;;-142.41;100.00;64449.00;5136591;27;20011;-66
2023/03/07 07:24:36;;;;;;;;;;;;;;;-142.41;100.00;64449.00;5136337;27;19919;-65
2023/03/07 07:27:02;;;;;;;;;;;;;;;-142.41;100.00;64449.00;5118068;27;19918;-66
2023/03/07 07:29:27;;;;;;;;;;;;;;;-142.41;100.00;64449.00;5136649;27;19911;-66
2023/03/07 07:31:52;;;;;;;;;;;;;;;-142.41;100.00;64449.00;5136424;27;20247;-66
2023/03/07 07:34:18;;;;;;;;;;;;;;;-142.41;100.00;64449.00;5136303;27;20013;-66
2023/03/07 07:36:43;;;;;;;;;;;;;;;-142.41;100.00;64449.00;5136115;27;19922;-65
2023/03/07 07:39:10;;;;;;;;;;;;;;;-142.41;100.00;64449.00;5136103;27;19920;-67
2023/03/07 07:41:35;;;;;;;;;;;;;;;-142.41;100.00;64449.00;5136239;27;20323;-66
2023/03/07 07:44:01;;;;;;;;;;;;;;;-142.41;100.00;64449.00;5135992;27;19912;-65
2023/03/07 07:46:27;;;;;;;;;;;;;;;-142.41;100.00;64449.00;5136105;27;19945;-65
2023/03/07 07:48:52;;;;;;;;;;;;;;;-142.41;100.00;64449.00;5136031;27;19912;-66
2023/03/07 07:51:18;;;;;;;;;;;;;;;-142.41;100.00;64449.00;5136090;27;19918;-65
2023/03/07 07:53:43;;;;;;;;;;;;;;;-142.41;100.00;64449.00;5135838;27;19915;-63
2023/03/07 07:56:09;;;;;;;;;;;;;;;-142.41;100.00;64449.00;5135878;27;19951;-64
2023/03/07 07:58:34;;;;;;;;;;;;;;;-142.41;100.00;64449.00;5135754;27;20334;-65
2023/03/07 08:00:59;;;;;;;;;;;;;;;-142.41;100.00;64449.00;5133833;27;19927;-64
2023/03/07 08:03:25;;;;;;;;;;;;;;;-142.41;100.00;64449.00;5123944;27;19920;-63
2023/03/07 08:05:51;;;;;;;;;;;;;;;-142.41;100.00;64449.00;5115544;28;19966;-64
2023/03/07 08:08:17;;;;;;;;;;;;;;;-142.41;100.00;64449.00;5097005;28;20053;-64
2023/03/07 08:10:46;;;;;;;;;;;;;;;-142.41;100.00;64449.00;5115004;28;19912;-66
2023/03/07 08:13:12;;;;;;;;;;;;;;;-142.41;100.00;64449.00;5114727;28;19911;-65
2023/03/07 08:15:38;;;;;;;;;;;;;;;-142.41;100.00;64449.00;5115372;28;20356;-65
2023/03/07 08:18:03;;;;;;;;;;;;;;;-142.41;100.00;64449.00;5115259;28;20003;-66
2023/03/07 08:20:28;;;;;;;;;;;;;;;-142.41;100.00;64449.00;5114949;28;20431;-65
2023/03/07 08:22:54;;;;;;;;;;;;;;;-142.41;100.00;64449.00;5115058;28;19911;-65
2023/03/07 08:25:21;;;;;;;;;;;;;;;-142.41;100.00;64449.00;5114653;28;19916;-66
2023/03/07 08:27:47;;;;;;;;;;;;;;;-142.41;100.00;64449.00;5114811;28;19912;-65
2023/03/07 08:30:13;;;;;;;;;;;;;;;-142.41;100.00;64449.00;5114764;28;19919;-65
2023/03/07 08:32:39;;;;;;;;;;;;;;;-142.41;100.00;64449.00;5114464;28;19916;-64
2023/03/07 08:35:05;;;;;;;;;;;;;;;-142.41;100.00;64449.00;5114632;28;20388;-65
2023/03/07 08:37:31;;;;;;;;;;;;;;;-142.41;100.00;64449.00;5114594;28;19962;-64
2023/03/07 08:39:56;;;;;;;;;;;;;;;-142.41;100.00;64449.00;5096564;28;19911;-64
2023/03/07 08:42:22;;;;;;;;;;;;;;;-142.41;100.00;64449.00;5114734;28;19918;-66
2023/03/07 08:44:47;;;;;;;;;;;;;;;-142.41;100.00;64449.00;5114440;28;19919;-66
2023/03/07 08:47:12;;;;;;;;;;;;;;;-142.41;100.00;64449.00;5095894;28;19912;-65
2023/03/07 08:49:38;;;;;;;;;;;;;;;-142.41;100.00;64449.00;5096302;28;19964;-65
2023/03/07 08:52:04;;;;;;;;;;;;;;;-142.41;100.00;64449.00;5114038;28;20017;-65
2023/03/07 08:54:31;;;;;;;;;;;;;;;-142.41;100.00;64449.00;5113862;28;20014;-64
2023/03/07 08:56:56;;;;;;;;;;;;;;;-142.41;100.00;64449.00;5095740;28;19912;-66
2023/03/07 08:59:21;;;;;;;;;;;;;;;-142.41;100.00;64449.00;5114192;27;20537;-65
2023/03/07 09:01:47;;;;;;;;;;;;;;;-142.41;100.00;64449.00;5129980;27;19912;-66
2023/03/07 09:04:12;;;;;;;;;;;;;;;-142.41;100.00;64449.00;5134856;27;19911;-66
2023/03/07 09:06:37;;;;;;;;;;;;;;;-142.41;100.00;64449.00;5134708;27;19918;-64
2023/03/07 09:09:04;;;;;;;;;;;;;;;-142.41;100.00;64449.00;5135361;27;19918;-63
2023/03/07 09:11:30;;;;;;;;;;;;;;;-142.41;100.00;64449.00;5135131;27;19922;-67
2023/03/07 09:13:57;;;;;;;;;;;;;;;-142.41;100.00;64449.00;5135424;27;19911;-66
2023/03/07 09:16:22;;;;;;;;;;;;;;;-142.41;100.00;64449.00;5134639;27;19923;-64
2023/03/07 09:18:48;;;;;;;;;;;;;;;-142.41;100.00;64449.00;5134308;27;19911;-66
2023/03/07 09:21:13;;;;;;;;;;;;;;;-142.41;100.00;64449.00;5115894;27;20382;-65
2023/03/07 09:23:38;;;;;;;;;;;;;;;-142.41;100.00;64449.00;5134059;27;19919;-65
2023/03/07 09:26:04;;;;;;;;;;;;;;;-142.41;100.00;64449.00;5133382;27;20373;-66
2023/03/07 09:28:30;;;;;;;;;;;;;;;-142.41;100.00;64449.00;5134209;27;19922;-66
2023/03/07 09:30:55;;;;;;;;;;;;;;;-142.41;100.00;64449.00;5133809;27;20003;-66
2023/03/07 09:33:21;;;;;;;;;;;;;;;-142.41;100.00;64449.00;5133765;27;19915;-65
2023/03/07 09:35:46;;;;;;;;;;;;;;;-142.41;100.00;64449.00;5133722;27;20386;-65
2023/03/07 09:38:12;;;;;;;;;;;;;;;-142.41;100.00;64449.00;5134050;27;20266;-65
2023/03/07 09:40:38;;;;;;;;;;;;;;;-142.41;100.00;64449.00;5133743;27;20007;-64
2023/03/07 09:43:20;;;;;;;;;;;;;;;-142.41;100.00;64449.00;5133588;27;19912;-66
2023/03/07 09:45:56;;;;;;;;;;;;;;;-142.41;100.00;64449.00;5134015;27;20424;-64
2023/03/07 09:48:37;;;;;;;;;;;;;;;-142.41;100.00;64449.00;5115051;27;20355;-65
2023/03/07 09:51:02;;;;;;;;;;;;;;;-142.41;100.00;64449.00;5133703;27;19911;-64
2023/03/07 09:53:48;;;;;;;;;;;;;;;-142.41;100.00;64449.00;5125979;27;19919;-63
2023/03/07 09:56:31;;;;;;;;;;;;;;;-142.41;100.00;64449.00;5113438;28;20359;-65
2023/03/07 09:59:02;;;;;;;;;;;;;;;-142.41;100.00;64449.00;5112990;28;20282;-67
2023/03/07 10:01:29;;;;;;;;;;;;;;;-142.41;100.00;64449.00;5112805;28;20362;-66
2023/03/07 10:04:03;;;;;;;;;;;;;;;-142.41;100.00;64449.00;5112103;28;19972;-65
2023/03/07 10:06:32;;;;;;;;;;;;;;;-142.41;100.00;64449.00;5112779;28;20374;-66
2023/03/07 10:08:59;;;;;;;;;;;;;;;-142.41;100.00;64449.00;5112779;28;20016;-68
2023/03/07 10:11:28;;;;;;;;;;;;;;;-142.41;100.00;64449.00;5112509;28;19912;-65
2023/03/07 10:14:12;;;;;;;;;;;;;;;-142.41;100.00;64449.00;5112664;28;19912;-66
2023/03/07 10:16:56;;;;;;;;;;;;;;;-142.41;100.00;64449.00;5112627;28;19912;-66
2023/03/07 10:19:44;;;;;;;;;;;;;;;-142.41;100.00;64449.00;5112797;28;19919;-65
2023/03/07 10:22:19;;;;;;;;;;;;;;;-142.41;100.00;64449.00;5112505;28;19916;-64
2023/03/07 10:25:02;;;;;;;;;;;;;;;-142.41;100.00;64449.00;5112767;28;19942;-64
2023/03/07 10:27:29;;;;;;;;;;;;;;;-142.41;100.00;64449.00;5112712;28;19919;-64
2023/03/07 10:29:57;;;;;;;;;;;;;;;-142.41;100.00;64449.00;5112297;28;19919;-66
2023/03/07 10:32:43;;;;;;;;;;;;;;;-142.41;100.00;64449.00;5112216;28;19916;-65
2023/03/07 10:35:10;;;;;;;;;;;;;;;-142.41;100.00;64449.00;5112719;28;20339;-64
2023/03/07 10:37:50;;;;;;;;;;;;;;;-142.41;100.00;64449.00;5114733;28;20018;-64
2023/03/07 10:40:19;;;;;;;;;;;;;;;-142.41;100.00;64449.00;5116651;28;19916;-66
2023/03/07 10:42:44;;;;;;;;;;;;;;;-142.41;100.00;64449.00;5116696;28;20415;-64
2023/03/07 10:45:11;;;;;;;;;;;;;;;-142.41;100.00;64449.00;5116737;28;19920;-67
2023/03/07 10:47:37;;;;;;;;;;;;;;;-142.41;100.00;64449.00;5116644;28;19918;-65
2023/03/07 10:50:18;;;;;;;;;;;;;;;-142.41;100.00;64449.00;5116979;28;20006;-63
2023/03/07 10:52:46;;;;;;;;;;;;;;;-142.41;100.00;64449.00;5116657;28;19919;-64
2023/03/07 10:55:41;;;;;;;;;;;;;;;-142.41;100.00;64449.00;5116596;28;20346;-64
2023/03/07 10:58:32;;;;;;;;;;;;;;;-142.41;100.00;64449.00;5098264;28;19912;-64
2023/03/07 11:00:57;;;;;;;;;;;;;;;-142.41;100.00;64449.00;5111180;28;20382;-65
2023/03/07 11:03:26;;;;;;;;;;;;;;;-142.41;100.00;64449.00;5097112;28;19948;-64
2023/03/07 11:05:51;;;;;;;;;;;;;;;-142.41;100.00;64449.00;5116415;28;19911;-66
2023/03/07 11:08:28;;;;;;;;;;;;;;;-142.41;100.00;64449.00;5116867;28;19912;-65
2023/03/07 11:10:53;;;;;;;;;;;;;;;-142.41;100.00;64449.00;5116201;28;19912;-64
2023/03/07 11:13:22;;;;;;;;;;;;;;;-142.41;100.00;64449.00;5115997;28;19911;-66
2023/03/07 11:15:48;;;;;;;;;;;;;;;-142.41;100.00;64449.00;5116213;28;19954;-65
2023/03/07 11:18:27;;;;;;;;;;;;;;;-142.41;100.00;64449.00;5116045;28;19952;-63
2023/03/07 11:20:53;;;;;;;;;;;;;;;-142.41;100.00;64449.00;5115861;28;19957;-64
2023/03/07 11:23:22;;;;;;;;;;;;;;;-142.41;100.00;64449.00;5116119;28;20283;-64
2023/03/07 11:25:47;;;;;;;;;;;;;;;-142.41;100.00;64449.00;5115917;28;19919;-64
2023/03/07 11:28:32;;;;;;;;;;;;;;;-142.41;100.00;64449.00;5115729;28;20010;-64
2023/03/07 11:31:18;;;;;;;;;;;;;;;-142.41;100.00;64449.00;5115822;28;20013;-65
2023/03/07 11:33:47;;;;;;;;;;;;;;;-142.41;100.00;64449.00;5096642;28;19920;-64
2023/03/07 11:36:14;;;;;;;;;;;;;;;-142.41;100.00;64449.00;5115520;28;20010;-65
2023/03/07 11:38:51;;;;;;;;;;;;;;;-142.41;100.00;64449.00;5115577;28;19919;-64
2023/03/07 11:41:45;;;;;;;;;;;;;;;-142.41;100.00;64449.00;5115955;28;19976;-64
2023/03/07 11:44:14;;;;;;;;;;;;;;;-142.41;100.00;64449.00;5115868;28;19976;-64
2023/03/07 11:46:39;;;;;;;;;;;;;;;-142.41;100.00;64449.00;5115301;28;19972;-65
2023/03/07 11:49:04;;;;;;;;;;;;;;;-142.41;100.00;64449.00;5114581;28;20363;-64
2023/03/07 11:51:36;;;;;;;;;;;;;;;-142.41;100.00;64449.00;5115404;28;19956;-65
2023/03/07 11:54:01;;;;;;;;;;;;;;;-142.41;100.00;64449.00;5115358;28;19935;-65
2023/03/07 11:56:45;;;;;;;;;;;;;;;-142.41;100.00;64449.00;5115457;28;20360;-64
2023/03/07 11:59:11;;;;;;;;;;;;;;;-142.41;100.00;64449.00;5115708;28;20309;-64
2023/03/07 12:01:43;;;;;;;;;;;;;;;-142.41;100.00;64449.00;5114886;28;19927;-63
2023/03/07 12:04:47;;;;;;;;;;;;;;;-142.41;100.00;64449.00;5115273;28;20283;-65
2023/03/07 12:07:12;;;;;;;;;;;;;;;-142.41;100.00;64449.00;5032252;28;20000;-66
2023/03/07 12:09:38;;;;;;;;;;;;;;;-142.41;100.00;64449.00;5015846;28;20257;-65
2023/03/07 12:12:06;;;;;;;;;;;;;;;-142.41;100.00;64449.00;5070560;28;19957;-64
2023/03/07 12:14:37;;;;;;;;;;;;;;;-142.41;100.00;64449.00;5115258;28;20386;-64
2023/03/07 12:17:16;;;;;;;;;;;;;;;-142.41;100.00;64449.00;5114895;28;19934;-65
2023/03/07 12:19:52;;;;;;;;;;;;;;;-142.41;100.00;64449.00;5115063;28;20251;-66